Time;durP1;ratioP1;P1;durP2;ratioP2;P2;SDS_P1;SDS_P2;PMS_P1;PMS_P2;Temp;Humidity;BMP_temperature;BMP_pressure;BME280_temperature;BME280_humidity;BME280_pressure;Samples;Min_cycle;Max_cycle;Signal;HPM_P1;HPM_P2
2022/01/11 00:04:01;;;;;;;214.30;84.38;;;;;;;;;;10517874;28;20040;-72
2022/01/11 00:09:18;;;;;;;181.75;63.15;;;;;;;;;;10517527;28;20052;-72
2022/01/11 00:14:20;;;;;;;189.57;62.65;;;;;;;;;;10533077;28;20041;-71
2022/01/11 00:19:24;;;;;;;164.68;61.88;;;;;;;;;;10517236;28;20045;-72
2022/01/11 00:24:30;;;;;;;174.43;62.35;;;;;;;;;;10516682;28;20087;-72
2022/01/11 00:29:34;;;;;;;179.88;63.03;;;;;;;;;;10530989;28;20036;-72
2022/01/11 00:34:47;;;;;;;182.18;63.80;;;;;;;;;;10514805;28;20037;-72
2022/01/11 00:39:52;;;;;;;186.15;64.38;;;;;;;;;;10516503;28;20267;-71
2022/01/11 00:44:55;;;;;;;181.73;66.10;;;;;;;;;;10516936;28;20040;-72
2022/01/11 00:49:58;;;;;;;176.02;64.78;;;;;;;;;;10516687;28;20048;-72
2022/01/11 00:55:02;;;;;;;183.50;65.70;;;;;;;;;;10514763;28;20040;-72
2022/01/11 01:00:08;;;;;;;173.70;59.88;;;;;;;;;;10516124;28;20106;-72
2022/01/11 01:05:11;;;;;;;168.27;63.50;;;;;;;;;;10530015;28;20492;-72
2022/01/11 01:10:25;;;;;;;171.32;61.67;;;;;;;;;;10515484;28;20055;-72
2022/01/11 01:15:28;;;;;;;177.07;63.08;;;;;;;;;;10526415;28;20152;-72
2022/01/11 01:20:31;;;;;;;178.80;64.20;;;;;;;;;;10514547;28;20055;-71
2022/01/11 01:25:35;;;;;;;164.68;61.10;;;;;;;;;;10515218;28;20051;-72
2022/01/11 01:30:38;;;;;;;174.35;64.70;;;;;;;;;;10515279;28;20336;-72
2022/01/11 01:35:45;;;;;;;170.38;65.22;;;;;;;;;;10514818;28;20046;-72
2022/01/11 01:40:49;;;;;;;175.10;64.75;;;;;;;;;;10514906;28;20300;-72
2022/01/11 01:45:53;;;;;;;167.52;63.75;;;;;;;;;;10517882;28;20086;-72
2022/01/11 01:50:56;;;;;;;169.57;62.10;;;;;;;;;;10523117;28;20347;-71
2022/01/11 01:56:01;;;;;;;174.98;63.53;;;;;;;;;;10523744;28;20044;-71
2022/01/11 02:01:04;;;;;;;164.20;62.05;;;;;;;;;;10522036;28;20332;-71
2022/01/11 02:06:09;;;;;;;168.20;62.92;;;;;;;;;;10510657;28;20041;-72
2022/01/11 02:11:15;;;;;;;167.60;62.63;;;;;;;;;;10520848;28;20056;-72
2022/01/11 02:16:21;;;;;;;174.38;63.85;;;;;;;;;;10532396;28;20068;-72
2022/01/11 02:21:26;;;;;;;174.43;64.07;;;;;;;;;;10535404;28;20044;-71
2022/01/11 02:26:28;;;;;;;161.60;61.50;;;;;;;;;;10521218;28;20044;-72
2022/01/11 02:31:31;;;;;;;173.25;63.70;;;;;;;;;;10522484;28;20041;-72
2022/01/11 02:36:37;;;;;;;167.40;59.92;;;;;;;;;;10506272;28;20225;-72
2022/01/11 02:41:49;;;;;;;;;;;;;;;;;;10519916;28;20029;-72
2022/01/11 02:46:52;;;;;;;147.70;55.03;;;;;;;;;;10534162;28;19931;-74
2022/01/11 02:51:56;;;;;;;163.07;60.65;;;;;;;;;;10519567;28;20048;-73
2022/01/11 02:56:59;;;;;;;164.95;59.75;;;;;;;;;;10515855;28;20047;-72
2022/01/11 03:02:01;;;;;;;170.00;61.30;;;;;;;;;;10518814;28;20204;-72
2022/01/11 03:07:06;;;;;;;144.07;53.92;;;;;;;;;;10518752;28;20044;-73
2022/01/11 03:12:11;;;;;;;151.45;57.58;;;;;;;;;;10519633;28;20358;-72
2022/01/11 03:17:14;;;;;;;140.93;52.10;;;;;;;;;;10520376;28;20079;-71
2022/01/11 03:22:18;;;;;;;158.85;59.40;;;;;;;;;;10518739;28;20316;-72
2022/01/11 03:27:20;;;;;;;156.82;58.25;;;;;;;;;;10518312;28;20066;-73
2022/01/11 03:32:23;;;;;;;141.60;52.97;;;;;;;;;;10518930;28;20049;-72
2022/01/11 03:37:28;;;;;;;162.18;56.97;;;;;;;;;;10520043;28;20052;-71
2022/01/11 03:42:31;;;;;;;159.30;59.60;;;;;;;;;;10519061;28;20045;-71
2022/01/11 03:47:34;;;;;;;151.43;55.85;;;;;;;;;;10517954;28;20044;-72
2022/01/11 03:52:38;;;;;;;169.43;64.13;;;;;;;;;;10519636;28;20259;-72
2022/01/11 03:57:42;;;;;;;170.15;60.08;;;;;;;;;;10517570;28;20052;-72
2022/01/11 04:02:45;;;;;;;159.43;60.90;;;;;;;;;;10518299;28;20049;-71
2022/01/11 04:07:49;;;;;;;160.95;61.53;;;;;;;;;;10519453;28;20052;-72
2022/01/11 04:12:52;;;;;;;152.70;57.15;;;;;;;;;;10516196;28;20037;-72
2022/01/11 04:17:56;;;;;;;153.57;59.47;;;;;;;;;;10514743;28;20099;-72
2022/01/11 04:23:00;;;;;;;148.35;55.25;;;;;;;;;;10516443;28;20063;-72
2022/01/11 04:28:03;;;;;;;165.18;57.97;;;;;;;;;;10517638;28;20037;-72
2022/01/11 04:33:05;;;;;;;152.20;53.30;;;;;;;;;;10477185;28;20041;-71
2022/01/11 04:38:10;;;;;;;122.13;45.20;;;;;;;;;;10516899;28;20040;-72
2022/01/11 04:43:12;;;;;;;150.27;54.35;;;;;;;;;;10517273;28;20033;-72
2022/01/11 04:48:15;;;;;;;171.82;59.30;;;;;;;;;;10516302;28;20049;-71
2022/01/11 04:53:19;;;;;;;152.68;54.80;;;;;;;;;;10515636;28;20097;-71
2022/01/11 04:58:23;;;;;;;150.10;59.88;;;;;;;;;;10515650;28;20040;-71
2022/01/11 05:03:25;;;;;;;156.77;59.85;;;;;;;;;;10513713;28;20102;-71
2022/01/11 05:08:29;;;;;;;152.20;60.28;;;;;;;;;;10513775;28;20052;-72
2022/01/11 05:13:32;;;;;;;162.27;61.90;;;;;;;;;;10513893;28;20101;-72
2022/01/11 05:18:36;;;;;;;168.27;63.58;;;;;;;;;;10513874;28;20068;-72
2022/01/11 05:23:40;;;;;;;154.32;58.40;;;;;;;;;;10514547;28;20057;-73
2022/01/11 05:28:42;;;;;;;160.07;63.70;;;;;;;;;;10512687;28;20044;-73
2022/01/11 05:33:45;;;;;;;165.05;60.42;;;;;;;;;;10512316;28;20041;-72
2022/01/11 05:38:49;;;;;;;179.30;65.72;;;;;;;;;;10514876;28;20045;-71
2022/01/11 05:43:52;;;;;;;220.25;86.93;;;;;;;;;;10514054;28;20040;-72
2022/01/11 05:48:55;;;;;;;176.07;65.55;;;;;;;;;;10514127;28;20109;-72
2022/01/11 05:53:59;;;;;;;187.25;68.88;;;;;;;;;;10514519;28;20036;-73
2022/01/11 05:59:02;;;;;;;171.90;63.55;;;;;;;;;;10514118;28;20052;-73
2022/01/11 06:04:05;;;;;;;172.00;64.85;;;;;;;;;;10512953;28;20041;-73
2022/01/11 06:09:09;;;;;;;172.48;65.47;;;;;;;;;;10513790;28;20040;-73
2022/01/11 06:14:12;;;;;;;188.38;67.20;;;;;;;;;;10518378;28;20240;-72
2022/01/11 06:19:15;;;;;;;179.68;70.13;;;;;;;;;;10513824;28;20069;-71
2022/01/11 06:24:19;;;;;;;177.75;67.30;;;;;;;;;;10513897;28;20056;-73
2022/01/11 06:29:22;;;;;;;189.45;68.28;;;;;;;;;;10513526;28;20048;-74
2022/01/11 06:34:25;;;;;;;210.52;77.00;;;;;;;;;;10518927;28;20082;-72
2022/01/11 06:39:36;;;;;;;244.35;83.40;;;;;;;;;;10521396;28;20097;-73
2022/01/11 06:44:38;;;;;;;259.42;84.88;;;;;;;;;;10526390;28;20032;-73
2022/01/11 06:49:41;;;;;;;278.83;94.40;;;;;;;;;;10522895;28;20036;-74
2022/01/11 06:54:45;;;;;;;227.38;76.43;;;;;;;;;;10520276;28;20044;-74
2022/01/11 06:59:48;;;;;;;247.30;86.55;;;;;;;;;;10546740;28;20052;-74
2022/01/11 07:04:51;;;;;;;234.73;83.18;;;;;;;;;;10524181;28;20044;-74
2022/01/11 07:09:55;;;;;;;213.57;82.80;;;;;;;;;;10520163;28;20045;-70
2022/01/11 07:14:58;;;;;;;208.90;80.47;;;;;;;;;;10520059;28;20044;-70
2022/01/11 07:20:00;;;;;;;211.70;82.93;;;;;;;;;;10518575;28;20060;-72
2022/01/11 07:25:06;;;;;;;194.00;77.07;;;;;;;;;;10519588;28;20041;-69
2022/01/11 07:30:10;;;;;;;195.02;76.40;;;;;;;;;;10533167;28;20047;-70
2022/01/11 07:35:13;;;;;;;220.93;88.15;;;;;;;;;;10519691;28;20059;-72
2022/01/11 07:40:17;;;;;;;255.30;103.10;;;;;;;;;;10519839;28;20228;-72
2022/01/11 07:45:20;;;;;;;233.95;98.03;;;;;;;;;;10519060;28;20040;-73
2022/01/11 07:50:23;;;;;;;201.88;82.10;;;;;;;;;;10518997;28;20048;-71
2022/01/11 07:55:27;;;;;;;201.73;85.72;;;;;;;;;;10518811;28;20185;-72
2022/01/11 08:00:31;;;;;;;187.68;80.80;;;;;;;;;;10538416;28;20046;-70
2022/01/11 08:05:34;;;;;;;207.73;86.90;;;;;;;;;;10524085;28;20047;-71
2022/01/11 08:10:38;;;;;;;186.45;84.70;;;;;;;;;;10541004;28;20143;-72
2022/01/11 08:15:41;;;;;;;187.63;81.07;;;;;;;;;;10518705;28;20060;-71
2022/01/11 08:20:47;;;;;;;184.95;79.75;;;;;;;;;;10517757;28;20051;-71
2022/01/11 08:25:51;;;;;;;187.20;80.20;;;;;;;;;;10518509;28;20040;-73
2022/01/11 08:30:57;;;;;;;180.40;78.20;;;;;;;;;;10516254;28;20352;-72
2022/01/11 08:35:59;;;;;;;185.43;77.93;;;;;;;;;;10516946;28;20048;-70
2022/01/11 08:41:04;;;;;;;176.68;77.47;;;;;;;;;;10521559;28;20044;-73
2022/01/11 08:46:07;;;;;;;169.20;75.80;;;;;;;;;;10516021;28;20047;-72
2022/01/11 08:51:09;;;;;;;173.98;78.30;;;;;;;;;;10515518;28;20052;-72
2022/01/11 08:56:17;;;;;;;179.82;81.00;;;;;;;;;;10516288;28;20092;-70
2022/01/11 09:01:20;;;;;;;185.65;84.85;;;;;;;;;;10515199;28;20056;-71
2022/01/11 09:06:23;;;;;;;181.82;86.07;;;;;;;;;;10516068;28;20178;-73
2022/01/11 09:11:27;;;;;;;205.60;91.72;;;;;;;;;;10515950;28;20033;-74
2022/01/11 09:16:31;;;;;;;203.77;91.82;;;;;;;;;;10515855;28;20064;-71
2022/01/11 09:21:35;;;;;;;194.98;88.15;;;;;;;;;;10515121;28;20044;-73
2022/01/11 09:26:39;;;;;;;176.98;81.75;;;;;;;;;;10533772;28;20100;-71
2022/01/11 09:31:42;;;;;;;185.80;83.88;;;;;;;;;;10514995;28;20049;-72
2022/01/11 09:36:44;;;;;;;182.20;83.13;;;;;;;;;;10514640;28;20236;-70
2022/01/11 09:41:49;;;;;;;175.15;81.82;;;;;;;;;;10516377;28;20040;-72
2022/01/11 09:46:52;;;;;;;179.63;83.45;;;;;;;;;;10514466;28;20274;-72
2022/01/11 09:51:54;;;;;;;184.10;83.15;;;;;;;;;;10514951;28;20103;-73
2022/01/11 09:56:58;;;;;;;189.25;83.20;;;;;;;;;;10521428;28;20052;-70
2022/01/11 10:02:01;;;;;;;188.27;87.40;;;;;;;;;;10515346;28;20373;-73
2022/01/11 10:07:06;;;;;;;180.70;86.10;;;;;;;;;;10518070;28;20049;-73
2022/01/11 10:12:13;;;;;;;205.02;94.25;;;;;;;;;;10533822;28;20036;-74
2022/01/11 10:17:20;;;;;;;199.05;91.13;;;;;;;;;;10520646;28;20060;-73
2022/01/11 10:22:23;;;;;;;201.30;93.07;;;;;;;;;;10495718;28;20091;-71
2022/01/11 10:27:33;;;;;;;190.35;89.50;;;;;;;;;;10564050;28;20060;-72
2022/01/11 10:32:39;;;;;;;216.60;106.40;;;;;;;;;;10556516;28;20601;-70
2022/01/11 10:37:43;;;;;;;265.73;120.57;;;;;;;;;;10522736;28;20044;-70
2022/01/11 10:42:50;;;;;;;223.25;108.28;;;;;;;;;;10521792;28;20393;-71
2022/01/11 10:47:54;;;;;;;186.60;89.85;;;;;;;;;;10539585;28;20049;-72
2022/01/11 10:52:58;;;;;;;188.00;90.45;;;;;;;;;;10520888;28;20037;-70
2022/01/11 10:58:03;;;;;;;185.55;88.38;;;;;;;;;;10520272;28;20224;-73
2022/01/11 11:03:10;;;;;;;190.45;91.75;;;;;;;;;;10521220;28;20037;-70
2022/01/11 11:08:14;;;;;;;197.38;93.63;;;;;;;;;;10534021;28;20217;-72
2022/01/11 11:13:21;;;;;;;182.30;88.28;;;;;;;;;;10519963;28;20041;-70
2022/01/11 11:18:38;;;;;;;179.32;86.20;;;;;;;;;;10527970;28;20359;-73
2022/01/11 11:23:41;;;;;;;208.55;97.13;;;;;;;;;;10533717;28;20047;-69
2022/01/11 11:28:45;;;;;;;201.50;95.97;;;;;;;;;;10519699;28;20280;-73
2022/01/11 11:33:50;;;;;;;200.60;96.55;;;;;;;;;;10527908;28;20090;-70
2022/01/11 11:38:56;;;;;;;233.43;105.93;;;;;;;;;;10519672;28;20056;-70
2022/01/11 11:44:09;;;;;;;213.60;100.50;;;;;;;;;;10561572;28;20332;-72
2022/01/11 11:49:12;;;;;;;213.65;98.43;;;;;;;;;;10533020;28;20049;-70
2022/01/11 11:54:16;;;;;;;205.38;98.40;;;;;;;;;;10519186;28;20114;-71
2022/01/11 11:59:26;;;;;;;212.95;97.22;;;;;;;;;;10518071;28;20045;-71
2022/01/11 12:04:59;;;;;;;212.55;99.97;;;;;;;;;;10532573;28;20320;-72
2022/01/11 12:10:03;;;;;;;225.90;106.57;;;;;;;;;;10435557;28;20049;-70
2022/01/11 12:15:47;;;;;;;226.38;106.03;;;;;;;;;;10431041;28;20336;-70
2022/01/11 12:20:53;;;;;;;232.88;111.35;;;;;;;;;;10383233;28;20063;-73
2022/01/11 12:26:11;;;;;;;232.30;112.85;;;;;;;;;;10456019;28;20054;-74
2022/01/11 12:31:25;;;;;;;255.82;118.05;;;;;;;;;;10433298;28;20061;-70
2022/01/11 12:36:52;;;;;;;221.65;109.85;;;;;;;;;;10443401;28;20052;-70
2022/01/11 12:41:57;;;;;;;195.50;93.65;;;;;;;;;;10473403;28;20252;-71
2022/01/11 12:47:02;;;;;;;219.10;102.93;;;;;;;;;;10516090;28;20048;-73
2022/01/11 12:52:12;;;;;;;201.60;95.13;;;;;;;;;;10538058;28;20311;-70
2022/01/11 12:57:20;;;;;;;182.98;89.78;;;;;;;;;;10545452;28;20349;-73
2022/01/11 13:02:36;;;;;;;199.55;94.07;;;;;;;;;;10515496;28;20108;-74
2022/01/11 13:07:42;;;;;;;202.07;92.63;;;;;;;;;;10516350;28;20106;-73
2022/01/11 13:12:48;;;;;;;190.20;92.45;;;;;;;;;;10515796;28;20355;-70
2022/01/11 13:17:56;;;;;;;204.00;98.07;;;;;;;;;;10520974;28;20074;-69
2022/01/11 13:23:15;;;;;;;169.65;86.22;;;;;;;;;;10502162;28;20056;-76
2022/01/11 13:28:20;;;;;;;197.20;97.15;;;;;;;;;;10517356;28;20045;-70
2022/01/11 13:33:25;;;;;;;188.13;90.28;;;;;;;;;;10515020;28;20047;-70
2022/01/11 13:38:33;;;;;;;193.48;96.75;;;;;;;;;;10515496;28;20040;-72
2022/01/11 13:43:39;;;;;;;194.90;92.43;;;;;;;;;;10527644;28;20040;-71
2022/01/11 13:48:45;;;;;;;167.67;79.83;;;;;;;;;;10515260;28;20082;-71
2022/01/11 13:53:50;;;;;;;167.23;80.18;;;;;;;;;;10517517;28;20351;-70
2022/01/11 13:58:54;;;;;;;165.75;74.28;;;;;;;;;;10514272;28;20053;-72
2022/01/11 14:04:08;;;;;;;158.83;74.83;;;;;;;;;;10515763;28;20044;-71
2022/01/11 14:09:17;;;;;;;164.32;73.35;;;;;;;;;;10555457;28;20274;-70
2022/01/11 14:14:24;;;;;;;165.05;75.82;;;;;;;;;;10538310;28;20066;-72
2022/01/11 14:19:28;;;;;;;171.60;76.75;;;;;;;;;;10518011;28;20056;-74
2022/01/11 14:24:51;;;;;;;185.38;78.78;;;;;;;;;;10557536;28;20044;-71
2022/01/11 14:30:00;;;;;;;179.98;77.55;;;;;;;;;;10527877;28;20040;-71
2022/01/11 14:35:06;;;;;;;179.60;79.10;;;;;;;;;;10519650;28;20036;-72
2022/01/11 14:40:23;;;;;;;178.90;81.75;;;;;;;;;;10518334;28;20360;-70
2022/01/11 14:45:28;;;;;;;173.75;77.45;;;;;;;;;;10528791;28;20247;-70
2022/01/11 14:50:33;;;;;;;178.00;74.80;;;;;;;;;;10515300;28;20105;-69
2022/01/11 14:55:48;;;;;;;155.23;70.30;;;;;;;;;;10560008;28;20297;-71
2022/01/11 15:00:55;;;;;;;162.93;70.78;;;;;;;;;;10554784;28;20351;-70
2022/01/11 15:06:04;;;;;;;161.05;73.78;;;;;;;;;;10535864;28;20059;-72
2022/01/11 15:11:18;;;;;;;162.82;73.18;;;;;;;;;;10547477;28;20032;-73
2022/01/11 15:16:23;;;;;;;158.38;73.00;;;;;;;;;;10518872;28;20062;-71
2022/01/11 15:21:26;;;;;;;166.13;74.35;;;;;;;;;;10529307;28;20053;-70
2022/01/11 15:26:32;;;;;;;166.90;73.57;;;;;;;;;;10521179;28;20049;-69
2022/01/11 15:31:35;;;;;;;165.00;76.43;;;;;;;;;;10535674;28;20302;-70
2022/01/11 15:36:38;;;;;;;157.48;71.03;;;;;;;;;;10520692;28;20063;-70
2022/01/11 15:41:43;;;;;;;157.20;71.72;;;;;;;;;;10520344;28;20331;-70
2022/01/11 15:46:46;;;;;;;183.80;85.85;;;;;;;;;;10518512;28;20336;-72
2022/01/11 15:51:51;;;;;;;197.10;92.50;;;;;;;;;;10520766;28;20048;-71
2022/01/11 15:56:55;;;;;;;146.35;67.50;;;;;;;;;;10517615;28;20097;-72
2022/01/11 16:01:59;;;;;;;148.67;65.77;;;;;;;;;;10517695;28;20044;-72
2022/01/11 16:07:02;;;;;;;144.40;65.22;;;;;;;;;;10517509;28;20312;-69
2022/01/11 16:12:07;;;;;;;143.57;65.85;;;;;;;;;;10514598;28;20043;-70
2022/01/11 16:17:10;;;;;;;155.98;70.55;;;;;;;;;;10514056;28;20299;-71
2022/01/11 16:22:13;;;;;;;162.02;72.72;;;;;;;;;;10516264;28;20074;-70
2022/01/11 16:27:17;;;;;;;164.35;76.53;;;;;;;;;;10516276;28;20375;-68
2022/01/11 16:32:23;;;;;;;176.98;77.65;;;;;;;;;;10516860;28;20094;-71
2022/01/11 16:37:26;;;;;;;170.85;76.57;;;;;;;;;;10491662;28;20048;-70
2022/01/11 16:42:39;;;;;;;171.10;76.95;;;;;;;;;;10517514;28;20098;-73
2022/01/11 16:47:44;;;;;;;162.65;76.07;;;;;;;;;;10516648;28;20052;-71
2022/01/11 16:52:47;;;;;;;170.07;78.20;;;;;;;;;;10513335;28;20236;-73
2022/01/11 16:57:51;;;;;;;183.48;81.00;;;;;;;;;;10485520;28;20072;-69
2022/01/11 17:02:54;;;;;;;164.93;76.80;;;;;;;;;;10500267;28;20271;-70
2022/01/11 17:07:56;;;;;;;174.68;79.10;;;;;;;;;;10516823;28;20063;-73
2022/01/11 17:13:01;;;;;;;169.38;77.30;;;;;;;;;;10516680;28;20047;-73
2022/01/11 17:18:04;;;;;;;171.63;77.35;;;;;;;;;;10548443;28;20052;-70
2022/01/11 17:23:07;;;;;;;183.80;81.80;;;;;;;;;;10557674;28;20044;-70
2022/01/11 17:28:11;;;;;;;173.32;80.75;;;;;;;;;;10523557;28;20060;-70
2022/01/11 17:33:14;;;;;;;188.38;82.35;;;;;;;;;;10547386;28;20036;-70
2022/01/11 17:38:17;;;;;;;180.63;80.55;;;;;;;;;;10549186;28;20056;-71
2022/01/11 17:43:21;;;;;;;182.05;80.88;;;;;;;;;;10514909;28;20046;-70
2022/01/11 17:48:24;;;;;;;199.93;87.97;;;;;;;;;;10515219;28;20044;-70
2022/01/11 17:53:33;;;;;;;205.07;92.15;;;;;;;;;;10526487;28;20339;-73
2022/01/11 17:58:37;;;;;;;182.77;82.63;;;;;;;;;;10545043;28;20047;-71
2022/01/11 18:03:40;;;;;;;188.50;87.55;;;;;;;;;;10514930;28;20095;-74
2022/01/11 18:08:43;;;;;;;181.48;82.35;;;;;;;;;;10517528;28;20048;-70
2022/01/11 18:13:48;;;;;;;174.40;81.53;;;;;;;;;;10513214;28;20032;-72
2022/01/11 18:18:50;;;;;;;165.57;77.63;;;;;;;;;;10515104;28;20245;-74
2022/01/11 18:23:53;;;;;;;177.85;80.93;;;;;;;;;;10552249;28;20348;-74
2022/01/11 18:28:57;;;;;;;168.68;78.93;;;;;;;;;;10560035;28;20043;-70
2022/01/11 18:34:00;;;;;;;183.90;83.53;;;;;;;;;;10530798;28;20086;-74
2022/01/11 18:39:04;;;;;;;192.38;86.05;;;;;;;;;;10538518;28;20045;-72
2022/01/11 18:44:09;;;;;;;195.52;86.85;;;;;;;;;;10554973;28;20077;-70
2022/01/11 18:49:11;;;;;;;179.98;82.45;;;;;;;;;;10557591;28;20039;-72
2022/01/11 18:54:15;;;;;;;197.77;86.90;;;;;;;;;;10506356;28;20053;-72
2022/01/11 18:59:19;;;;;;;203.25;82.90;;;;;;;;;;10521644;28;20048;-73
2022/01/11 19:04:21;;;;;;;249.80;96.35;;;;;;;;;;10522762;28;20048;-70
2022/01/11 19:09:29;;;;;;;253.63;103.55;;;;;;;;;;10520929;28;20056;-72
2022/01/11 19:14:35;;;;;;;258.00;104.63;;;;;;;;;;10534622;28;20342;-74
2022/01/11 19:19:38;;;;;;;272.15;112.63;;;;;;;;;;10520064;28;20086;-74
2022/01/11 19:24:41;;;;;;;273.00;112.80;;;;;;;;;;10518902;28;20248;-73
2022/01/11 19:29:47;;;;;;;264.73;111.38;;;;;;;;;;10519515;28;20052;-73
2022/01/11 19:34:51;;;;;;;214.43;97.13;;;;;;;;;;10516431;28;20232;-73
2022/01/11 19:39:55;;;;;;;257.30;108.55;;;;;;;;;;10529784;28;20055;-70
2022/01/11 19:45:03;;;;;;;237.73;100.32;;;;;;;;;;10519239;28;20052;-72
2022/01/11 19:50:07;;;;;;;224.45;100.03;;;;;;;;;;10519683;28;20068;-73
2022/01/11 19:55:10;;;;;;;205.85;94.03;;;;;;;;;;10519022;28;20366;-73
2022/01/11 20:00:17;;;;;;;199.43;89.25;;;;;;;;;;10519992;28;20048;-74
2022/01/11 20:05:20;;;;;;;199.60;93.10;;;;;;;;;;10520612;28;20328;-73
2022/01/11 20:10:24;;;;;;;209.30;98.05;;;;;;;;;;10521582;28;20119;-74
2022/01/11 20:15:28;;;;;;;263.80;109.00;;;;;;;;;;10521604;28;20071;-73
2022/01/11 20:20:35;;;;;;;247.32;108.28;;;;;;;;;;10519922;28;20044;-74
2022/01/11 20:30:59;;;;;;;276.33;115.38;;;;;;;;;;10535623;28;20081;-74
2022/01/11 20:36:03;;;;;;;287.67;111.60;;;;;;;;;;10518286;28;20240;-70
2022/01/11 20:41:07;;;;;;;226.23;99.30;;;;;;;;;;10521232;28;20053;-71
2022/01/11 20:46:11;;;;;;;217.27;91.90;;;;;;;;;;10517187;28;20074;-71
2022/01/11 20:51:17;;;;;;;189.93;86.13;;;;;;;;;;10516924;28;20044;-73
2022/01/11 20:56:21;;;;;;;237.02;96.43;;;;;;;;;;10531199;28;20048;-73
2022/01/11 21:01:28;;;;;;;196.27;89.18;;;;;;;;;;10515404;28;20085;-73
2022/01/11 21:06:31;;;;;;;215.05;92.53;;;;;;;;;;10531094;28;20040;-73
2022/01/11 21:11:34;;;;;;;226.40;97.35;;;;;;;;;;10516524;28;20044;-71
2022/01/11 21:16:49;;;;;;;228.57;95.95;;;;;;;;;;10506859;28;20056;-73
2022/01/11 21:21:52;;;;;;;213.30;95.70;;;;;;;;;;10528488;28;20259;-74
2022/01/11 21:26:57;;;;;;;208.35;91.57;;;;;;;;;;10508885;28;20047;-73
2022/01/11 21:32:02;;;;;;;221.77;97.53;;;;;;;;;;10515318;28;20037;-73
2022/01/11 21:37:05;;;;;;;260.65;106.60;;;;;;;;;;10514604;28;20047;-73
2022/01/11 21:42:08;;;;;;;281.98;114.03;;;;;;;;;;10516727;28;20052;-70
2022/01/11 21:47:13;;;;;;;238.63;105.28;;;;;;;;;;10516295;28;20236;-71
2022/01/11 21:52:17;;;;;;;220.93;101.38;;;;;;;;;;10515455;28;20044;-72
2022/01/11 21:57:21;;;;;;;217.82;99.78;;;;;;;;;;10508186;28;20381;-73
2022/01/11 22:02:27;;;;;;;243.90;105.03;;;;;;;;;;10530833;28;20048;-73
2022/01/11 22:07:30;;;;;;;255.05;111.13;;;;;;;;;;10523825;28;20094;-70
2022/01/11 22:12:36;;;;;;;292.02;122.60;;;;;;;;;;10516505;28;20033;-70
2022/01/11 22:17:42;;;;;;;282.23;122.95;;;;;;;;;;10488463;28;20060;-73
2022/01/11 22:22:46;;;;;;;265.65;114.53;;;;;;;;;;10536767;28;20067;-72
2022/01/11 22:27:49;;;;;;;269.03;109.00;;;;;;;;;;10517596;28;20040;-72
2022/01/11 22:32:53;;;;;;;280.48;110.75;;;;;;;;;;10522040;28;20297;-72
2022/01/11 22:37:56;;;;;;;271.98;111.30;;;;;;;;;;10523282;28;20048;-73
2022/01/11 22:42:59;;;;;;;339.25;131.68;;;;;;;;;;10522236;28;20209;-73
2022/01/11 22:48:03;;;;;;;303.33;118.47;;;;;;;;;;10522579;28;20047;-72
2022/01/11 22:53:06;;;;;;;317.27;120.70;;;;;;;;;;10481724;28;20044;-72
2022/01/11 22:58:09;;;;;;;305.83;120.88;;;;;;;;;;10509506;28;20048;-73
2022/01/11 23:03:15;;;;;;;317.77;121.72;;;;;;;;;;10521361;28;20040;-71
2022/01/11 23:08:18;;;;;;;398.55;142.20;;;;;;;;;;10535071;28;20270;-70
2022/01/11 23:14:49;;;;;;;377.83;140.48;;;;;;;;;;10519451;28;20063;-73
2022/01/11 23:19:09;;;;;;;375.38;136.32;;;;;;;;;;10519980;28;20067;-70
2022/01/11 23:24:12;;;;;;;362.23;131.43;;;;;;;;;;10519704;28;20063;-73
2022/01/11 23:29:16;;;;;;;367.85;128.07;;;;;;;;;;10519246;28;20036;-70
2022/01/11 23:34:21;;;;;;;371.80;131.43;;;;;;;;;;10519019;28;20055;-72
2022/01/11 23:40:02;;;;;;;394.83;135.67;;;;;;;;;;10497203;28;20048;-71
2022/01/11 23:45:49;;;;;;;;;;;;;;;;;;10520102;28;20253;-70
2022/01/11 23:50:27;;;;;;;344.80;123.90;;;;;;;;;;10519611;28;19923;-70
2022/01/11 23:55:30;;;;;;;392.70;134.70;;;;;;;;;;10519045;28;20071;-73
